Tropical Cyclones
[Index]
Main Index Home Page Stock Weather Photos Extreme Storms Discussion Storm News and Storm Chasing Reports Tropical Cyclones / Hurricanes / Typhoons Weather Data and Links Wild Fires / Bushfires Weather Observation Techniques Weather Picture Catalogue Tornado Pictures and Reports Stock Video Footage and DVDs for sale
Season 2005-2006 Tropical Cyclone BERTIE Track Map
Season 2005-2006 Summaries: [BoM-AU] [JTWC-AU] [JTWC-SIO] [JTWC-SPAC] [JTWC-SH]
<<- Previous TC | BoM 2005-2006 Season | Next TC ->>

click for intensity scale information  Lat/long Grid: Show Hide

 Date Labels: Show Hide

Bureau of Meteorology Tropical Cyclone Data

Name: BERTIE
Number: 891 / 200506_01

18 Nov 2005 06:00 UTC to 24 Nov 2005 00:00 UTC

    date/time    lat    long    hPa   cat  kts
2005-11-18 06    4.5    95.5   1004         25          
2005-11-18 12    4.5    95.5   1002         25          
2005-11-18 18    4.8    95.0   1000         25          
2005-11-19 00    5.5    94.5    998         30          
2005-11-19 06    6.6    94.2    994    1    35          
2005-11-19 12    7.0    94.0    992    1    10          
2005-11-19 18    7.4    94.0    988    1    45          
2005-11-20 00    7.6    94.0    988    1    45          
2005-11-20 06    8.0    93.8    984    2    50          
2005-11-20 12    8.4    93.6    984    2    50          
2005-11-20 18    8.8    93.2    984    2    50          
2005-11-21 00    9.0    92.8    976    2    55          
2005-11-21 06    9.6    92.3    970    3    65          
2005-11-21 12   10.1    91.8    966    3    70          
2005-11-21 18   10.5    91.3    962    3    75          
2005-11-22 00   10.9    91.2    962    3    75          
2005-11-22 06   11.5    90.9    942    4    90          
2005-11-22 12   11.8    90.5    928    5    100          
2005-11-22 18   12.2    90.4    928    5    100          
2005-11-23 00   12.6    90.3    928    5    100          
2005-11-23 06   12.9    90.3    928    5    100          
2005-11-23 12   13.5    90.2    928    5    100          
2005-11-23 18   14.1    90.0    936    4    95          
2005-11-24 00   14.3    89.8    936    4    95          
Winds are 10-min average.

Tropical cyclone tracks developed by Michael Bath using data from the Bureau of Meteorology and Google Maps.


[Australian Severe Weather index] [Copyright Notice] [Email Contacts] [Search This Site] [Privacy Policy]
Document: tropical_cyclone_bertie.htm Updated: 29 June 2017